createdAt,value
2023-05-25T10:56:08.307Z,585.00
2023-05-25T10:57:08.267Z,613.13
2023-05-25T10:58:08.289Z,568.13
2023-05-25T10:59:08.258Z,618.75
2023-05-25T11:00:08.307Z,663.75
2023-05-25T11:01:08.378Z,635.63
2023-05-25T11:02:09.232Z,663.75
2023-05-25T11:03:08.221Z,607.50
2023-05-25T11:04:08.225Z,601.88
2023-05-25T11:07:37.708Z,596.25
2023-05-25T11:08:37.692Z,579.38
2023-05-25T11:09:37.672Z,607.50
2023-05-25T11:10:37.685Z,624.38
2023-05-25T11:11:37.653Z,663.75
2023-05-25T11:12:37.623Z,680.63
2023-05-25T11:13:39.840Z,686.25
2023-05-25T11:14:37.602Z,658.13
2023-05-25T11:15:37.591Z,669.38
2023-05-25T11:16:37.689Z,601.88
2023-05-25T11:17:37.608Z,601.88
2023-05-25T11:18:37.565Z,607.50
2023-05-25T11:19:37.524Z,635.63
2023-05-25T11:20:37.561Z,568.13
2023-05-25T11:21:37.541Z,573.75
2023-05-25T11:22:37.518Z,607.50
2023-05-25T11:23:37.499Z,641.25
2023-05-25T11:24:37.496Z,641.25
2023-05-25T11:25:37.516Z,646.88
2023-05-25T11:26:37.467Z,652.50
2023-05-25T11:27:37.475Z,630.00
2023-05-25T11:28:37.444Z,596.25
2023-05-25T11:29:37.428Z,556.88
2023-05-25T11:30:37.452Z,534.38
2023-05-25T11:31:41.368Z,517.50
2023-05-25T11:32:37.431Z,534.38
2023-05-25T11:33:37.355Z,551.25
2023-05-25T11:34:37.366Z,573.75
2023-05-25T11:35:37.456Z,585.00
2023-05-25T11:36:37.345Z,596.25
2023-05-25T11:37:37.334Z,652.50
2023-05-25T11:38:37.301Z,652.50
2023-05-25T11:39:37.280Z,618.75
2023-05-25T11:40:40.228Z,585.00
2023-05-25T11:41:37.288Z,568.13
2023-05-25T11:42:37.255Z,551.25
2023-05-25T11:43:37.299Z,528.75
2023-05-25T11:44:37.236Z,511.88
2023-05-25T11:45:37.263Z,495.00
2023-05-25T11:46:37.240Z,495.00
2023-05-25T11:47:38.161Z,506.25
2023-05-25T11:48:37.207Z,528.75
2023-05-25T11:49:37.184Z,556.88
2023-05-25T11:50:37.153Z,607.50
2023-05-25T11:51:37.173Z,658.13
2023-05-25T11:52:37.158Z,669.38
2023-05-25T11:53:37.155Z,686.25
2023-05-25T11:54:37.132Z,680.63
2023-05-25T11:55:37.102Z,720.00
2023-05-25T11:56:37.114Z,736.88
2023-05-25T11:57:37.075Z,731.25
2023-05-25T11:58:37.067Z,731.25
2023-05-25T11:59:37.044Z,646.88
2023-05-25T12:00:37.068Z,646.88
2023-05-25T12:01:37.028Z,663.75
2023-05-25T12:02:37.144Z,736.88
2023-05-25T12:03:37.110Z,725.63
2023-05-25T12:04:37.109Z,635.63
2023-05-25T12:05:37.045Z,613.13
2023-05-25T12:06:37.257Z,601.88
2023-05-25T12:07:36.960Z,573.75
2023-05-25T12:11:42.355Z,590.63
2023-05-25T12:12:42.338Z,590.63
2023-05-25T12:13:42.345Z,585.00
2023-05-25T12:14:42.336Z,585.00
2023-05-25T12:15:42.542Z,590.63
2023-05-25T12:16:42.323Z,579.38
2023-05-25T12:17:42.331Z,579.38
2023-05-25T12:18:42.283Z,579.38
2023-05-25T12:19:42.265Z,568.13
2023-05-25T12:20:42.503Z,556.88
2023-05-25T12:21:42.245Z,562.50
2023-05-25T12:22:42.229Z,562.50
2023-05-25T12:23:42.190Z,556.88
2023-05-25T12:24:42.207Z,545.63
2023-05-25T12:25:50.200Z,551.25
2023-05-25T12:26:42.202Z,556.88
2023-05-25T12:27:42.182Z,528.75
2023-05-25T12:28:42.143Z,461.25
2023-05-25T12:30:08.129Z,556.88
2023-05-25T12:31:08.126Z,568.13
2023-05-25T12:32:08.093Z,568.13
2023-05-25T12:33:08.098Z,551.25
2023-05-25T12:34:08.052Z,540.00
2023-05-25T12:35:08.049Z,545.63
2023-05-25T12:36:08.074Z,556.88
2023-05-25T12:37:08.024Z,551.25
2023-05-25T12:38:07.987Z,562.50
2023-05-25T12:39:07.979Z,556.88
2023-05-25T12:40:15.776Z,551.25
2023-05-25T12:41:08.019Z,551.25
2023-05-25T12:42:07.947Z,545.63
2023-05-25T12:43:07.977Z,545.63
2023-05-25T12:44:07.932Z,534.38
2023-05-25T12:45:07.916Z,534.38
2023-05-25T12:46:08.032Z,523.13
2023-05-25T12:47:07.964Z,511.88
2023-05-25T12:48:07.938Z,511.88
2023-05-25T12:49:07.867Z,511.88
2023-05-25T12:50:07.865Z,517.50
2023-05-25T12:51:07.872Z,523.13
2023-05-25T12:52:07.846Z,523.13
2023-05-25T12:53:07.850Z,528.75
2023-05-25T12:54:07.824Z,534.38
2023-05-25T12:55:07.796Z,540.00
2023-05-25T12:56:07.804Z,545.63
2023-05-25T12:57:07.778Z,562.50
2023-05-25T12:58:07.820Z,585.00
2023-05-25T12:59:07.748Z,630.00
2023-05-25T13:00:07.781Z,680.63
2023-05-25T13:01:07.725Z,736.88
2023-05-25T13:02:07.849Z,866.25
2023-05-25T13:03:07.980Z,1569.38
2023-05-25T13:04:07.694Z,2407.50
2023-05-25T13:05:07.725Z,2711.25
2023-05-25T13:06:07.676Z,2806.88
2023-05-25T13:07:07.660Z,2773.13
2023-05-25T13:08:07.658Z,2902.50
2023-05-25T13:09:07.658Z,3105.00
2023-05-25T13:10:07.820Z,3279.38
2023-05-25T13:11:07.624Z,3155.63
2023-05-25T13:12:07.616Z,3217.50
2023-05-25T13:13:07.602Z,3178.13
2023-05-25T13:14:07.611Z,3144.38
2023-05-25T13:15:07.578Z,3105.00
2023-05-25T13:16:07.597Z,3105.00
2023-05-25T13:17:07.559Z,3200.63
2023-05-25T13:18:07.779Z,3273.75
2023-05-25T13:19:07.541Z,3341.25
2023-05-25T13:20:07.652Z,3223.13
2023-05-25T13:21:07.578Z,3234.38
2023-05-25T13:22:07.509Z,3515.63
2023-05-25T13:23:07.500Z,3453.75
2023-05-25T13:24:07.503Z,3138.75
2023-05-25T13:25:07.486Z,3279.38
2023-05-25T13:26:07.472Z,3465.00
2023-05-25T13:27:07.461Z,3577.50
2023-05-25T13:28:07.480Z,3436.88
2023-05-25T13:29:07.456Z,3251.25
2023-05-25T13:30:07.432Z,3121.88
2023-05-25T13:31:07.419Z,2913.75
2023-05-25T13:32:07.428Z,2818.13
2023-05-25T13:33:07.481Z,2688.75
2023-05-25T13:34:07.408Z,2463.75
2023-05-25T13:35:07.399Z,2486.25
2023-05-25T13:36:07.379Z,2514.38
2023-05-25T13:37:07.372Z,2390.63
2023-05-25T13:38:07.374Z,2300.63
2023-05-25T13:39:07.408Z,2250.00
2023-05-25T13:40:07.350Z,2272.50
2023-05-25T13:41:07.363Z,2210.63
2023-05-25T13:42:07.332Z,2115.00
2023-05-25T13:43:07.335Z,2126.25
2023-05-25T13:44:07.346Z,2126.25
2023-05-25T13:45:07.309Z,2098.13
2023-05-25T13:46:08.822Z,2081.25
2023-05-25T13:47:07.380Z,2103.75
2023-05-25T13:48:07.393Z,2148.75
2023-05-25T13:49:07.294Z,2171.25
2023-05-25T13:50:07.282Z,2205.00
2023-05-25T13:51:07.276Z,2261.25
2023-05-25T13:52:07.258Z,2289.38
2023-05-25T13:53:07.252Z,2328.75
2023-05-25T13:54:07.282Z,2424.38
2023-05-25T13:55:07.252Z,2553.75
2023-05-25T13:56:07.232Z,2778.75
2023-05-25T13:57:07.224Z,2964.38
2023-05-25T13:58:07.223Z,3206.25
2023-05-25T13:59:07.212Z,3172.50
2023-05-25T14:00:07.222Z,2829.38
2023-05-25T14:01:07.230Z,2773.13
2023-05-25T14:02:07.218Z,2801.25
2023-05-25T14:03:07.295Z,2818.13
2023-05-25T14:04:07.287Z,2981.25
2023-05-25T14:05:07.242Z,3082.50
2023-05-25T14:06:07.182Z,3065.63
2023-05-25T14:07:07.178Z,2902.50
2023-05-25T14:08:07.169Z,2857.50
2023-05-25T14:09:07.168Z,2868.75
2023-05-25T14:10:07.844Z,2947.50
2023-05-25T14:11:07.162Z,2998.13
2023-05-25T14:12:07.164Z,2863.13
2023-05-25T14:13:07.137Z,2857.50
2023-05-25T14:14:11.501Z,2975.63
2023-05-25T14:15:07.124Z,2919.38
2023-05-25T14:16:07.143Z,2851.88
2023-05-25T14:17:07.105Z,3054.38
2023-05-25T14:18:07.145Z,3178.13
2023-05-25T14:19:07.095Z,3065.63
2023-05-25T14:20:07.197Z,3009.38
2023-05-25T14:21:07.100Z,3003.75
2023-05-25T14:23:07.073Z,3003.75
2023-05-25T14:24:07.076Z,3009.38
2023-05-25T14:25:07.063Z,3048.75
2023-05-25T14:26:07.057Z,2930.63
2023-05-25T14:27:07.193Z,2835.00
2023-05-25T14:28:07.042Z,2790.00
2023-05-25T14:29:07.038Z,2784.38
2023-05-25T14:30:07.038Z,2896.88
2023-05-25T14:31:07.056Z,3009.38
2023-05-25T14:32:07.041Z,3268.13
2023-05-25T14:33:07.125Z,3172.50
2023-05-25T14:34:07.014Z,2913.75
2023-05-25T14:35:07.006Z,2953.13
2023-05-25T14:36:07.003Z,2880.00
2023-05-25T14:37:06.992Z,2925.00
2023-05-25T14:38:07.003Z,2919.38
2023-05-25T14:39:06.997Z,2953.13
2023-05-25T14:40:06.982Z,2964.38
2023-05-25T14:41:06.980Z,2868.75
2023-05-25T14:42:06.972Z,2986.88
2023-05-25T14:43:06.977Z,3166.88
2023-05-25T14:44:06.969Z,3071.25
2023-05-25T14:45:08.716Z,2941.88
2023-05-25T14:46:06.957Z,2953.13
2023-05-25T14:47:07.037Z,3037.50
2023-05-25T14:48:16.174Z,2936.25
2023-05-25T14:49:06.947Z,2829.38
2023-05-25T14:50:06.936Z,2818.13
2023-05-25T14:51:06.951Z,2750.63
2023-05-25T14:52:06.937Z,2671.88
2023-05-25T14:53:06.916Z,2677.50
2023-05-25T14:54:06.930Z,2700.00
2023-05-25T14:55:06.909Z,2784.38
2023-05-25T14:56:08.978Z,2874.38
2023-05-25T14:57:06.913Z,2851.88
2023-05-25T14:58:06.891Z,2891.25
2023-05-25T14:59:06.897Z,2992.50
2023-05-25T15:00:06.882Z,2998.13
2023-05-25T15:01:06.874Z,2953.13
2023-05-25T15:02:06.937Z,2958.75
2023-05-25T15:03:06.932Z,2958.75
2023-05-25T15:04:06.972Z,2913.75
2023-05-25T15:05:06.859Z,2925.00
2023-05-25T15:06:06.853Z,2857.50
2023-05-25T15:07:06.861Z,2790.00
2023-05-25T15:08:06.844Z,2863.13
2023-05-25T15:09:06.862Z,2919.38
2023-05-25T15:10:06.832Z,3048.75
2023-05-25T15:11:06.827Z,3082.50
2023-05-25T15:12:06.829Z,2992.50
2023-05-25T15:13:06.817Z,2919.38
2023-05-25T15:14:06.826Z,2851.88
2023-05-25T15:15:06.819Z,2874.38
2023-05-25T15:16:06.825Z,3009.38
2023-05-25T15:17:06.798Z,2936.25
2023-05-25T15:18:06.831Z,2919.38
2023-05-25T15:19:07.302Z,3076.88
2023-05-25T15:20:06.816Z,3048.75
2023-05-25T15:21:06.781Z,2835.00
2023-05-25T15:22:06.780Z,2806.88
2023-05-25T15:23:06.773Z,2823.75
2023-05-25T15:24:06.781Z,2739.38
2023-05-25T15:25:06.768Z,2711.25
2023-05-25T15:26:06.772Z,2711.25
2023-05-25T15:27:06.759Z,2671.88
2023-05-25T15:28:06.759Z,2559.38
2023-05-25T15:29:06.803Z,2514.38
2023-05-25T15:30:06.752Z,2525.63
2023-05-25T15:31:06.746Z,2593.13
2023-05-25T15:32:06.768Z,2626.88
2023-05-25T15:33:06.796Z,2705.63
2023-05-25T15:34:06.734Z,2677.50
2023-05-25T15:35:06.717Z,2542.50
2023-05-25T15:36:06.729Z,2548.13
2023-05-25T15:37:06.706Z,2593.13
2023-05-25T15:38:06.720Z,2615.63
2023-05-25T15:39:06.694Z,2649.38
2023-05-25T15:40:06.706Z,2576.25
2023-05-25T15:41:06.693Z,2508.75
2023-05-25T15:42:06.697Z,2503.13
2023-05-25T15:43:06.694Z,2553.75
2023-05-25T15:44:06.678Z,2576.25
2023-05-25T15:45:06.670Z,2413.13
2023-05-25T15:46:06.700Z,2356.88
2023-05-25T15:47:06.679Z,2441.25
2023-05-25T15:48:06.679Z,2435.63
2023-05-25T15:49:06.653Z,2390.63
2023-05-25T15:50:06.651Z,2401.88
2023-05-25T15:51:06.643Z,2362.50
2023-05-25T15:52:06.677Z,2334.38
2023-05-25T15:53:06.642Z,2379.38
2023-05-25T15:54:06.650Z,2373.75
2023-05-25T15:55:06.626Z,2323.13
2023-05-25T15:56:06.633Z,2272.50
2023-05-25T15:57:06.645Z,2266.88
2023-05-25T15:58:06.623Z,2283.75
2023-05-25T15:59:06.613Z,2295.00
2023-05-25T16:00:06.609Z,2295.00
2023-05-25T16:01:06.654Z,2283.75
2023-05-25T16:02:06.867Z,2345.63
2023-05-25T16:03:06.624Z,2323.13
2023-05-25T16:04:06.633Z,2238.75
2023-05-25T16:05:06.587Z,2193.75
2023-05-25T16:06:06.612Z,2171.25
2023-05-25T16:07:06.574Z,2148.75
2023-05-25T16:08:06.587Z,2210.63
2023-05-25T16:09:06.592Z,2233.13
2023-05-25T16:10:06.561Z,2171.25
2023-05-25T16:11:06.577Z,2148.75
2023-05-25T16:12:06.556Z,2165.63
2023-05-25T16:13:06.558Z,2171.25
2023-05-25T16:14:06.542Z,2160.00
2023-05-25T16:15:06.538Z,2193.75
2023-05-25T16:16:06.546Z,2210.63
2023-05-25T16:17:06.530Z,2148.75
2023-05-25T16:18:06.542Z,2126.25
2023-05-25T16:19:06.572Z,2098.13
2023-05-25T16:20:06.567Z,2103.75
2023-05-25T16:21:06.521Z,2115.00
2023-05-25T16:22:06.506Z,2148.75
2023-05-25T16:23:06.499Z,2086.88
2023-05-25T16:24:06.514Z,2041.88
2023-05-25T16:25:06.497Z,2013.75
2023-05-25T16:26:06.496Z,1980.00
2023-05-25T16:27:06.521Z,1974.38
2023-05-25T16:28:06.486Z,1963.13
2023-05-25T16:29:06.493Z,1996.88
2023-05-25T16:30:06.487Z,2030.63
2023-05-25T16:31:06.470Z,1974.38
2023-05-25T16:32:06.539Z,1963.13
2023-05-25T16:33:06.520Z,1974.38
2023-05-25T16:34:06.480Z,1980.00
2023-05-25T16:35:06.450Z,1951.88
2023-05-25T16:36:06.456Z,1974.38
2023-05-25T16:37:06.451Z,1951.88
2023-05-25T16:38:06.446Z,1963.13
2023-05-25T16:39:06.446Z,1957.50
2023-05-25T16:40:06.450Z,1957.50
2023-05-25T16:41:06.427Z,1935.00
2023-05-25T16:42:06.424Z,1895.63
2023-05-25T16:43:06.413Z,1935.00
2023-05-25T16:44:06.445Z,1940.63
2023-05-25T16:45:06.404Z,1912.50
2023-05-25T16:46:06.466Z,1873.13
2023-05-25T16:47:06.392Z,1867.50
2023-05-25T16:48:06.478Z,1845.00
2023-05-25T16:49:06.383Z,1816.88
2023-05-25T16:50:06.415Z,1816.88
2023-05-25T16:51:06.370Z,1822.50
2023-05-25T16:52:06.405Z,1800.00
2023-05-25T16:53:06.402Z,1732.50
2023-05-25T16:54:06.417Z,1676.25
2023-05-25T16:55:06.361Z,1653.75
2023-05-25T16:56:06.364Z,1591.88
2023-05-25T16:57:06.365Z,1580.63
2023-05-25T16:58:06.380Z,1597.50
2023-05-25T16:59:06.330Z,1636.88
2023-05-25T17:00:06.353Z,1653.75
2023-05-25T17:01:06.360Z,1642.50
2023-05-25T17:02:06.366Z,1580.63
2023-05-25T17:03:06.418Z,1558.13
2023-05-25T17:04:06.476Z,1563.75
2023-05-25T17:05:06.322Z,1563.75
2023-05-25T17:06:06.304Z,1541.25
2023-05-25T17:07:06.305Z,1513.13
2023-05-25T17:08:06.415Z,1513.13
2023-05-25T17:09:06.279Z,1507.50
2023-05-25T17:10:06.280Z,1501.88
2023-05-25T17:11:06.279Z,1479.38
2023-05-25T17:12:06.266Z,1468.13
2023-05-25T17:13:06.300Z,1462.50
2023-05-25T17:14:06.259Z,1468.13
2023-05-25T17:15:06.259Z,1473.75
2023-05-25T17:16:06.289Z,1451.25
2023-05-25T17:17:06.242Z,1451.25
2023-05-25T17:18:06.256Z,1361.25
2023-05-25T17:19:06.215Z,1080.00
2023-05-25T17:20:06.240Z,776.25
2023-05-25T17:21:06.288Z,826.88
2023-05-25T17:22:06.195Z,613.13
2023-05-25T17:23:06.187Z,590.63
2023-05-25T17:24:06.187Z,630.00
2023-05-25T17:25:49.017Z,410.63
